עמוד ראשי
METAR-TAF:

METAR-TAF

שדות תעופה :

אלכסנדריה-בורג אל ערבי, מצרים

קו רוחב: 31-31N, קו אורך: 030-10E, גובה: 54מטר

תצפית מזג אוויר נוכחית

הדו"ח נערך לפני 55דקות, בשעה 22:00 UTC
רוח 6קשר מכיוון צפון-מערב
טמפרטורת 25 צלסיוס
לחות 89%
לחץ 1009 hPa
ראות 10 קילומטר או יותר
ללא עננים שבסיסם נמוך מ 5000 רגל או קומולונימבוס

METAR: HEBA 152200Z 31006KT CAVOK 25/23 Q1009 NOSIG

זמן: 00:55 (22:55 UTC)

תחזית

הדו"ח נערך לפני 5 שעות ו 55דקות, בשעה 17:00 UTC
תחזית בתוקף מ 15 ב 18 UTC עד 16 ב 24 UTC
רוח 11קשר מכיוון צפון/צפון-מערב
ראות 10 קילומטר או יותר
ללא עננים שבסיסם נמוך מ 5000 רגל או קומולונימבוס

TAF: HEBA 151700Z 1518/1624 33011KT CAVOK

תצפיות ותחזיות מזג אוויר לגבי יותר מ- 4,000 שדות תעופה ברחבי העולם. דוחות METAR ו- TAF.

התחנות הזמינות מסומנות בנקודות צהובות ואדומות על גבי המפה.

העבר את העכבר לנקודה הצבעונית על מנת לראות את שם התחנה.

לאחר מכן, לחץ כדי לראות את תוכן ואת תחזיות מזג האוויר.

כדי לשנות את המפה: לחץ על הכפתורים הירוקים עם הפלוס השחור כדי להתקרב; על הכפתור הירוק עם המקף כדי להתרחק; או בחיצים הירוקים למפות סמוכות.


METAR-TAF: